Time;durP1;ratioP1;P1;durP2;ratioP2;P2;SDS_P1;SDS_P2;PMS_P1;PMS_P2;Temp;Humidity;BMP_temperature;BMP_pressure;BME280_temperature;BME280_humidity;BME280_pressure;Samples;Min_cycle;Max_cycle;Signal;HPM_P1;HPM_P2
2023/08/26 00:02:08;;;;;;;27.98;19.15;;;;;;;16.44;100.00;100722.53;5086419;28;20036;-75
2023/08/26 00:04:33;;;;;;;29.00;20.15;;;;;;;16.39;100.00;100716.16;5090093;28;20035;-74
2023/08/26 00:07:00;;;;;;;28.90;20.10;;;;;;;16.33;100.00;100710.59;5088563;28;20024;-75
2023/08/26 00:09:25;;;;;;;30.48;19.27;;;;;;;16.31;100.00;100699.19;5088667;28;20032;-74
2023/08/26 00:11:51;;;;;;;28.30;20.65;;;;;;;16.28;100.00;100686.06;5090721;28;20027;-75
2023/08/26 00:14:16;;;;;;;25.50;18.75;;;;;;;16.27;100.00;100697.16;5090417;28;20513;-75
2023/08/26 00:16:44;;;;;;;27.15;18.77;;;;;;;16.32;100.00;100698.13;5087687;28;20031;-75
2023/08/26 00:19:10;;;;;;;24.30;17.80;;;;;;;16.47;100.00;100707.66;5085922;28;20545;-75
2023/08/26 00:21:37;;;;;;;24.50;18.05;;;;;;;16.47;100.00;100708.47;5091198;28;20036;-75
2023/08/26 00:24:03;;;;;;;22.83;17.88;;;;;;;16.48;100.00;100710.13;5091183;28;20028;-75
2023/08/26 00:26:30;;;;;;;24.58;17.52;;;;;;;16.45;100.00;100710.59;5088205;28;20031;-75
2023/08/26 00:28:55;;;;;;;24.60;18.00;;;;;;;16.33;100.00;100705.16;5091024;28;20035;-75
2023/08/26 00:31:22;;;;;;;23.52;17.60;;;;;;;16.32;100.00;100705.44;5090600;28;20058;-74
2023/08/26 00:33:48;;;;;;;28.55;19.02;;;;;;;16.25;100.00;100707.44;5089461;28;20024;-75
2023/08/26 00:36:13;;;;;;;26.48;19.27;;;;;;;16.24;100.00;100708.53;5090139;28;20365;-75
2023/08/26 00:38:38;;;;;;;32.90;20.75;;;;;;;16.15;100.00;100706.16;5090546;28;20024;-76
2023/08/26 00:41:04;;;;;;;30.70;21.58;;;;;;;16.12;100.00;100703.91;5087786;28;20027;-76
2023/08/26 00:43:33;;;;;;;34.53;23.10;;;;;;;16.14;100.00;100704.50;5087499;28;20492;-75
2023/08/26 00:45:59;;;;;;;34.65;22.58;;;;;;;16.07;100.00;100701.06;5082995;28;20754;-76
2023/08/26 00:48:24;;;;;;;34.33;22.67;;;;;;;16.04;100.00;100693.44;5087545;28;20032;-75
2023/08/26 00:50:50;;;;;;;32.90;22.45;;;;;;;16.02;100.00;100698.28;5091489;28;20019;-75
2023/08/26 00:53:16;;;;;;;34.70;23.70;;;;;;;15.96;100.00;100691.06;5056604;28;20428;-76
2023/08/26 00:55:41;;;;;;;37.42;24.95;;;;;;;15.92;100.00;100698.88;5086523;28;20030;-74
2023/08/26 00:58:06;;;;;;;38.28;24.98;;;;;;;15.90;100.00;100692.84;5072053;28;20017;-75
2023/08/26 01:00:33;;;;;;;43.58;27.02;;;;;;;15.83;100.00;100689.38;5094592;28;20038;-74
2023/08/26 01:02:59;;;;;;;39.05;24.98;;;;;;;15.92;100.00;100698.88;5095772;28;20020;-74
2023/08/26 01:05:24;;;;;;;36.67;24.38;;;;;;;15.96;100.00;100697.34;5091892;28;20097;-75
2023/08/26 01:07:50;;;;;;;40.20;25.60;;;;;;;16.03;100.00;100689.88;5073344;28;20024;-75
2023/08/26 01:10:15;;;;;;;35.60;25.92;;;;;;;16.12;100.00;100701.19;5089784;28;20054;-74
2023/08/26 01:12:52;;;;;;;36.75;24.92;;;;;;;16.19;100.00;100715.50;5089651;28;20032;-75
2023/08/26 01:15:17;;;;;;;38.08;25.38;;;;;;;16.19;100.00;100717.38;5067044;28;20040;-76
2023/08/26 01:17:43;;;;;;;39.78;26.05;;;;;;;16.07;100.00;100711.94;5069393;28;20039;-75
2023/08/26 01:20:08;;;;;;;41.53;27.08;;;;;;;16.03;100.00;100713.50;5055133;28;20043;-76
2023/08/26 01:22:34;;;;;;;41.15;26.70;;;;;;;16.08;100.00;100716.31;5071634;28;20032;-76
2023/08/26 01:24:59;;;;;;;39.28;26.92;;;;;;;16.08;100.00;100705.44;5087852;28;20032;-76
2023/08/26 01:27:25;;;;;;;41.20;26.27;;;;;;;16.05;100.00;100697.81;5050189;28;20013;-76
2023/08/26 01:29:50;;;;;;;41.03;27.98;;;;;;;15.98;100.00;100691.66;5084264;28;20490;-76
2023/08/26 01:32:41;;;;;;;43.92;28.63;;;;;;;15.98;100.00;100688.94;5084775;28;20025;-76
2023/08/26 01:35:08;;;;;;;37.75;25.95;;;;;;;16.06;100.00;100680.44;5068843;28;20072;-75
2023/08/26 01:37:34;;;;;;;36.95;24.48;;;;;;;16.14;100.00;100685.50;5067886;28;20033;-76
2023/08/26 01:39:59;;;;;;;33.33;24.90;;;;;;;16.14;100.00;100690.94;5065581;28;20031;-76
2023/08/26 01:42:25;;;;;;;33.35;23.60;;;;;;;16.06;100.00;100691.31;5060688;28;20033;-76
2023/08/26 01:44:51;;;;;;;33.33;23.58;;;;;;;16.05;100.00;100690.47;5065695;28;20761;-75
2023/08/26 01:47:16;;;;;;;34.22;23.48;;;;;;;16.08;100.00;100688.34;5067019;28;20090;-75
2023/08/26 01:49:44;;;;;;;34.92;23.52;;;;;;;15.97;100.00;100692.72;5069275;28;20041;-75
2023/08/26 01:52:10;;;;;;;32.55;23.40;;;;;;;15.92;100.00;100688.00;5069006;28;20069;-75
2023/08/26 01:54:36;;;;;;;32.50;23.00;;;;;;;15.90;100.00;100696.38;5064553;28;20025;-75
2023/08/26 01:57:01;;;;;;;31.23;22.83;;;;;;;15.95;100.00;100700.25;5064458;28;20067;-75
2023/08/26 01:59:26;;;;;;;32.80;22.88;;;;;;;15.89;100.00;100689.28;5065809;28;20035;-75
2023/08/26 02:01:52;;;;;;;30.73;22.60;;;;;;;15.93;100.00;100680.66;5068175;28;20016;-76
2023/08/26 02:04:20;;;;;;;27.30;20.98;;;;;;;15.87;100.00;100680.56;5068506;28;20065;-76
2023/08/26 02:06:46;;;;;;;27.42;20.98;;;;;;;15.95;100.00;100692.13;5068750;28;20029;-76
2023/08/26 02:09:11;;;;;;;30.92;20.95;;;;;;;15.88;100.00;100681.38;5068218;28;20032;-75
2023/08/26 02:11:36;;;;;;;31.80;21.08;;;;;;;15.86;100.00;100689.78;5068847;28;20791;-75
2023/08/26 02:14:02;;;;;;;26.88;20.20;;;;;;;15.93;100.00;100696.97;5073547;28;20025;-75
2023/08/26 02:16:27;;;;;;;26.20;19.52;;;;;;;15.84;100.00;100694.59;5072376;28;20021;-75
2023/08/26 02:18:53;;;;;;;29.02;20.38;;;;;;;15.84;100.00;100697.31;5071578;28;20032;-75
2023/08/26 02:21:18;;;;;;;27.20;20.00;;;;;;;15.96;100.00;100685.63;5071539;28;20396;-75
2023/08/26 02:23:44;;;;;;;27.20;20.27;;;;;;;16.00;100.00;100679.47;5072480;28;20066;-75
2023/08/26 02:26:09;;;;;;;27.25;19.65;;;;;;;15.99;100.00;100685.16;5069632;28;20024;-75
2023/08/26 02:28:34;;;;;;;26.58;19.40;;;;;;;16.12;100.00;100684.91;5072851;28;20037;-77
2023/08/26 02:31:03;;;;;;;23.50;18.13;;;;;;;15.96;100.00;100680.19;5071950;28;20033;-75
2023/08/26 02:33:29;;;;;;;24.55;18.92;;;;;;;15.85;100.00;100690.84;5064181;28;20165;-75
2023/08/26 02:35:54;;;;;;;23.55;18.45;;;;;;;15.89;100.00;100691.19;5073452;28;20048;-75
2023/08/26 02:38:19;;;;;;;18.38;15.05;;;;;;;15.97;100.00;100695.44;5072015;28;20153;-75
2023/08/26 02:40:52;;;;;;;18.75;14.93;;;;;;;15.73;100.00;100700.81;5067854;28;20024;-75
2023/08/26 02:43:18;;;;;;;20.55;15.40;;;;;;;15.52;100.00;100697.63;5071226;28;20441;-75
2023/08/26 02:45:43;;;;;;;18.08;14.68;;;;;;;15.43;100.00;100699.88;5070914;28;20031;-75
2023/08/26 02:48:09;;;;;;;17.23;14.38;;;;;;;15.44;100.00;100706.09;5072144;28;20052;-75
2023/08/26 02:50:36;;;;;;;21.80;15.35;;;;;;;15.27;100.00;100703.22;5073621;28;20472;-75
2023/08/26 02:53:01;;;;;;;16.70;13.07;;;;;;;15.29;100.00;100714.66;5073536;28;20494;-75
2023/08/26 02:55:27;;;;;;;16.08;12.43;;;;;;;15.14;100.00;100712.41;5070847;28;20032;-75
2023/08/26 02:57:52;;;;;;;16.48;12.55;;;;;;;15.18;100.00;100719.00;5072350;28;20439;-75
2023/08/26 03:00:17;;;;;;;14.57;12.13;;;;;;;15.10;100.00;100722.03;5074106;28;20028;-75
2023/08/26 03:02:43;;;;;;;16.02;11.75;;;;;;;15.05;100.00;100716.47;5071489;28;20028;-75
2023/08/26 03:05:08;;;;;;;15.32;10.70;;;;;;;14.86;100.00;100719.22;5072488;28;20031;-75
2023/08/26 03:07:33;;;;;;;14.50;11.15;;;;;;;14.82;100.00;100726.19;5071815;28;20040;-75
2023/08/26 03:09:59;;;;;;;16.48;12.02;;;;;;;14.83;100.00;100728.66;5071446;28;20464;-75
2023/08/26 03:12:24;;;;;;;16.20;11.88;;;;;;;14.74;100.00;100731.91;5072005;28;20053;-75
2023/08/26 03:14:52;;;;;;;17.42;12.05;;;;;;;14.73;100.00;100728.38;5070864;28;20589;-74
2023/08/26 03:17:17;;;;;;;15.55;10.90;;;;;;;14.67;100.00;100731.97;5070704;28;20040;-75
2023/08/26 03:19:43;;;;;;;16.52;10.80;;;;;;;14.63;100.00;100731.59;5070785;28;20089;-74
2023/08/26 03:22:08;;;;;;;15.98;11.45;;;;;;;14.55;100.00;100729.19;5072041;28;20020;-76
2023/08/26 03:24:36;;;;;;;14.23;10.10;;;;;;;14.43;100.00;100736.41;5067794;28;20064;-75
2023/08/26 03:27:01;;;;;;;14.23;10.07;;;;;;;14.42;100.00;100737.47;5071189;28;20020;-75
2023/08/26 03:29:26;;;;;;;14.85;10.20;;;;;;;14.46;100.00;100738.69;5071899;28;20047;-75
2023/08/26 03:31:52;;;;;;;16.17;10.50;;;;;;;14.26;100.00;100734.31;5068545;28;20035;-75
2023/08/26 03:34:18;;;;;;;10.70;9.13;;;;;;;14.26;100.00;100747.84;5070171;28;20036;-74
2023/08/26 03:36:43;;;;;;;15.30;9.15;;;;;;;14.21;100.00;100742.25;5069959;28;20033;-75
2023/08/26 03:39:08;;;;;;;11.35;8.85;;;;;;;14.21;100.00;100745.78;5068206;28;20047;-75
2023/08/26 03:41:34;;;;;;;12.40;8.05;;;;;;;14.14;100.00;100739.63;5069956;28;20461;-75
2023/08/26 03:43:59;;;;;;;12.23;7.63;;;;;;;14.03;100.00;100752.00;5068306;28;20042;-75
2023/08/26 03:46:26;;;;;;;11.93;7.70;;;;;;;13.91;100.00;100745.69;5070090;28;20649;-75
2023/08/26 03:48:52;;;;;;;10.75;6.97;;;;;;;13.72;100.00;100751.03;5068290;28;20036;-77
2023/08/26 03:51:17;;;;;;;10.80;7.20;;;;;;;13.63;100.00;100758.59;5071228;28;20032;-76
2023/08/26 03:53:43;;;;;;;8.63;6.68;;;;;;;13.64;100.00;100752.13;5071333;28;20028;-76
2023/08/26 03:56:08;;;;;;;13.85;7.00;;;;;;;13.70;100.00;100746.88;5072530;28;20024;-76
2023/08/26 03:58:34;;;;;;;11.75;6.88;;;;;;;13.68;100.00;100749.81;5073551;28;20036;-77
2023/08/26 04:01:04;;;;;;;10.57;7.10;;;;;;;13.52;100.00;100750.34;5072348;28;20016;-77
2023/08/26 04:03:30;;;;;;;10.55;6.13;;;;;;;13.45;100.00;100756.63;5071130;28;20028;-77
2023/08/26 04:06:02;;;;;;;7.05;5.80;;;;;;;13.44;100.00;100748.75;5084376;28;20036;-76
2023/08/26 04:08:29;;;;;;;11.70;6.50;;;;;;;13.32;100.00;100751.28;5071368;28;20032;-77
2023/08/26 04:10:56;;;;;;;11.48;6.82;;;;;;;13.26;100.00;100762.94;5070933;28;20051;-77
2023/08/26 04:13:23;;;;;;;10.88;6.90;;;;;;;13.18;100.00;100751.38;5072036;28;20028;-77
2023/08/26 04:15:48;;;;;;;11.30;6.78;;;;;;;13.13;100.00;100759.28;5070313;28;20016;-77
2023/08/26 04:18:14;;;;;;;9.00;6.25;;;;;;;13.07;100.00;100762.03;5069168;28;20039;-77
2023/08/26 04:20:42;;;;;;;11.98;6.55;;;;;;;13.07;100.00;100765.53;5070479;28;20029;-77
2023/08/26 04:23:08;;;;;;;11.00;6.70;;;;;;;13.07;100.00;100765.53;5066318;28;20024;-77
2023/08/26 04:25:33;;;;;;;12.15;6.30;;;;;;;13.01;100.00;100780.75;5070833;28;20037;-77
2023/08/26 04:27:58;;;;;;;9.63;6.00;;;;;;;12.96;100.00;100774.34;5069622;28;20031;-77
2023/08/26 04:30:24;;;;;;;13.75;6.30;;;;;;;12.98;100.00;100775.78;5066644;28;20028;-77
2023/08/26 04:32:49;;;;;;;10.38;5.88;;;;;;;12.97;100.00;100778.69;5066089;28;20483;-77
2023/08/26 04:35:16;;;;;;;11.30;6.00;;;;;;;12.92;100.00;100781.22;5070048;28;20047;-77
2023/08/26 04:37:41;;;;;;;6.68;4.75;;;;;;;12.92;100.00;100781.22;5062904;28;20029;-74
2023/08/26 04:40:13;;;;;;;9.60;5.20;;;;;;;12.85;100.00;100776.69;5066914;28;20033;-77
2023/08/26 04:42:40;;;;;;;8.23;4.90;;;;;;;12.83;100.00;100792.28;5068437;28;20035;-75
2023/08/26 04:45:06;;;;;;;6.20;4.68;;;;;;;12.78;100.00;100785.84;5065668;28;20039;-77
2023/08/26 04:47:32;;;;;;;7.22;4.85;;;;;;;12.71;100.00;100789.41;5069148;28;20024;-77
2023/08/26 04:49:58;;;;;;;6.57;4.70;;;;;;;12.70;100.00;100793.16;5071333;28;20027;-74
2023/08/26 04:52:24;;;;;;;6.93;4.20;;;;;;;12.74;100.00;100805.19;5077468;28;20026;-75
2023/08/26 04:54:49;;;;;;;6.80;4.43;;;;;;;12.75;100.00;100808.72;5071796;28;20107;-75
2023/08/26 04:57:14;;;;;;;6.32;4.15;;;;;;;12.67;100.00;100806.25;5072732;28;20033;-77
2023/08/26 04:59:40;;;;;;;9.23;4.22;;;;;;;12.66;100.00;100807.28;5070871;28;20021;-76
2023/08/26 05:02:07;;;;;;;6.00;4.25;;;;;;;12.70;100.00;100813.94;5070777;28;20092;-76
2023/08/26 05:04:33;;;;;;;5.80;3.80;;;;;;;12.73;100.00;100808.09;5069304;28;20023;-76
2023/08/26 05:06:58;;;;;;;8.35;4.05;;;;;;;12.74;100.00;100810.59;5069456;28;20020;-76
2023/08/26 05:09:24;;;;;;;6.22;3.97;;;;;;;12.74;100.00;100809.75;5069541;28;20041;-76
2023/08/26 05:11:49;;;;;;;6.65;4.22;;;;;;;12.71;100.00;100804.75;5069472;28;20568;-76
2023/08/26 05:14:14;;;;;;;8.65;3.90;;;;;;;12.70;100.00;100819.34;5068312;28;20036;-77
2023/08/26 05:16:40;;;;;;;7.15;4.03;;;;;;;12.71;100.00;100811.00;5066734;28;20028;-77
2023/08/26 05:19:05;;;;;;;6.13;3.83;;;;;;;12.74;100.00;100818.69;5068599;28;20445;-77
2023/08/26 05:21:31;;;;;;;4.40;3.47;;;;;;;12.80;100.00;100822.41;5068716;28;20029;-77
2023/08/26 05:23:57;;;;;;;6.43;3.70;;;;;;;12.83;100.00;100827.41;5061804;28;20028;-77
2023/08/26 05:26:24;;;;;;;9.88;3.95;;;;;;;12.86;100.00;100821.56;5067542;28;20020;-77
2023/08/26 05:28:49;;;;;;;7.90;4.10;;;;;;;12.93;100.00;100834.22;5069772;28;20032;-77
2023/08/26 05:31:14;;;;;;;4.63;3.35;;;;;;;12.93;100.00;100828.81;5062016;28;20404;-77
2023/08/26 05:33:40;;;;;;;5.93;3.85;;;;;;;12.97;100.00;100841.66;5066552;28;20571;-76
2023/08/26 05:36:05;;;;;;;7.47;3.72;;;;;;;13.01;100.00;100848.31;5067063;28;20102;-75
2023/08/26 05:38:30;;;;;;;6.18;3.63;;;;;;;13.05;100.00;100843.34;5066210;28;20349;-76
2023/08/26 05:40:57;;;;;;;5.13;3.20;;;;;;;13.16;100.00;100850.75;5067157;28;20036;-77
2023/08/26 05:43:22;;;;;;;9.77;3.50;;;;;;;13.44;100.00;100846.09;5065726;28;20028;-77
2023/08/26 05:45:50;;;;;;;5.60;3.30;;;;;;;13.53;98.78;100849.38;5070343;28;20043;-75
2023/08/26 05:48:16;;;;;;;6.30;3.17;;;;;;;13.55;98.75;100848.09;5070254;28;20040;-79
2023/08/26 05:50:41;;;;;;;7.25;3.72;;;;;;;13.62;98.53;100845.34;5070495;28;20033;-78
2023/08/26 05:53:42;;;;;;;5.38;3.65;;;;;;;13.57;98.68;100848.72;5070377;28;20380;-79
2023/08/26 05:56:22;;;;;;;9.25;4.07;;;;;;;13.78;97.95;100847.53;5068503;28;20028;-76
2023/08/26 05:58:47;;;;;;;7.40;3.40;;;;;;;13.98;96.00;100840.34;5070980;28;20040;-76
2023/08/26 06:01:13;;;;;;;5.43;3.88;;;;;;;14.08;94.85;100840.66;5068860;28;20016;-76
2023/08/26 06:03:38;;;;;;;6.80;3.95;;;;;;;13.85;95.04;100847.53;5070742;28;20492;-75
2023/08/26 06:06:12;;;;;;;6.70;3.58;;;;;;;14.28;93.43;100848.63;5069623;28;20032;-75
2023/08/26 06:08:38;;;;;;;8.65;4.07;;;;;;;14.32;92.59;100860.66;5068192;28;20021;-75
2023/08/26 06:11:03;;;;;;;7.72;4.13;;;;;;;14.68;90.21;100850.97;5066590;28;20098;-75
2023/08/26 06:13:29;;;;;;;6.80;3.55;;;;;;;15.74;84.66;100854.47;5069758;28;20032;-75
2023/08/26 06:16:00;;;;;;;5.07;3.60;;;;;;;16.32;81.85;100855.69;5070011;28;20024;-76
2023/08/26 06:18:26;;;;;;;7.50;3.95;;;;;;;17.33;76.12;100859.19;5068274;28;20032;-76
2023/08/26 06:20:51;;;;;;;4.78;3.65;;;;;;;17.56;73.74;100852.00;5071275;28;20400;-76
2023/08/26 06:23:18;;;;;;;4.72;2.90;;;;;;;17.96;73.31;100852.97;5066203;28;20032;-76
2023/08/26 06:25:56;;;;;;;6.60;3.58;;;;;;;18.47;69.57;100847.56;5080551;28;20028;-77
2023/08/26 06:28:22;;;;;;;5.40;3.00;;;;;;;19.64;65.05;100849.28;5066256;28;20093;-75
2023/08/26 06:30:47;;;;;;;4.85;2.90;;;;;;;20.08;63.01;100851.06;5069245;28;20040;-76
2023/08/26 06:33:13;;;;;;;6.20;2.70;;;;;;;20.51;60.74;100853.00;5078060;28;20035;-78
2023/08/26 06:35:38;;;;;;;2.83;2.28;;;;;;;20.64;59.63;100847.06;5075374;28;20508;-75
2023/08/26 06:38:03;;;;;;;6.15;2.90;;;;;;;20.64;58.66;100849.81;5072612;28;20036;-75
2023/08/26 06:40:33;;;;;;;6.38;2.50;;;;;;;20.80;59.36;100855.38;5070998;28;20075;-75
2023/08/26 06:42:59;;;;;;;5.68;2.70;;;;;;;20.77;58.83;100858.66;5070186;28;20107;-75
2023/08/26 06:45:24;;;;;;;4.05;2.72;;;;;;;19.95;61.90;100851.47;5068725;28;20028;-75
2023/08/26 06:47:50;;;;;;;7.97;3.03;;;;;;;20.83;58.65;100852.09;5070492;28;20028;-74
2023/08/26 06:50:15;;;;;;;3.92;2.50;;;;;;;21.89;55.64;100846.38;5071712;28;20031;-75
2023/08/26 06:52:41;;;;;;;5.25;2.30;;;;;;;22.58;52.54;100850.75;5071009;28;20423;-75
2023/08/26 06:55:08;;;;;;;4.47;2.45;;;;;;;22.58;51.93;100857.06;5069981;28;20035;-75
2023/08/26 06:57:35;;;;;;;5.03;2.50;;;;;;;22.19;54.69;100857.63;5069707;28;20098;-75
2023/08/26 07:00:03;;;;;;;6.82;2.60;;;;;;;22.53;53.33;100863.38;5070739;28;20024;-76
2023/08/26 07:02:28;;;;;;;6.35;2.63;;;;;;;20.74;58.26;100863.53;5069916;28;20059;-75
2023/08/26 07:04:53;;;;;;;4.00;2.45;;;;;;;22.72;52.91;100873.75;5069437;28;20461;-76
2023/08/26 07:07:19;;;;;;;4.85;2.78;;;;;;;21.44;55.37;100858.91;5067641;28;20732;-75
2023/08/26 07:09:44;;;;;;;7.53;2.83;;;;;;;21.61;54.41;100869.66;5066916;28;20035;-75
2023/08/26 07:12:10;;;;;;;7.32;3.03;;;;;;;22.03;53.64;100851.34;5068959;28;20028;-75
2023/08/26 07:14:35;;;;;;;4.50;2.47;;;;;;;22.74;52.45;100860.59;5070469;28;20020;-75
2023/08/26 07:17:00;;;;;;;5.38;2.50;;;;;;;22.72;52.35;100868.28;5087949;28;20190;-75
2023/08/26 07:19:26;;;;;;;5.30;2.63;;;;;;;22.17;53.65;100863.41;5072754;28;20134;-76
2023/08/26 07:21:51;;;;;;;5.97;2.72;;;;;;;21.87;54.21;100870.53;5066341;28;21141;-75
2023/08/26 07:24:17;;;;;;;6.85;2.63;;;;;;;22.79;50.89;100870.72;5070851;28;20040;-75
2023/08/26 07:26:42;;;;;;;5.25;2.50;;;;;;;20.55;57.62;100865.06;5071148;28;20025;-76
2023/08/26 07:29:07;;;;;;;5.97;2.78;;;;;;;21.56;55.49;100867.69;5066352;28;20028;-75
2023/08/26 07:31:35;;;;;;;3.95;2.60;;;;;;;22.06;53.98;100872.72;5065871;28;20064;-75
2023/08/26 07:34:01;;;;;;;5.20;2.60;;;;;;;21.70;54.97;100870.75;5067448;28;20036;-75
2023/08/26 07:36:26;;;;;;;4.40;2.40;;;;;;;21.93;55.15;100863.94;5068202;28;20029;-74
2023/08/26 07:38:53;;;;;;;7.07;3.05;;;;;;;23.38;49.83;100865.56;5068000;28;20068;-76
2023/08/26 07:41:18;;;;;;;6.20;3.00;;;;;;;21.44;55.21;100861.66;5069290;28;20373;-75
2023/08/26 07:43:44;;;;;;;5.00;2.67;;;;;;;21.58;54.58;100860.03;5068349;28;20024;-76
2023/08/26 07:46:09;;;;;;;6.82;3.00;;;;;;;21.40;56.97;100866.00;5069931;28;20021;-74
2023/08/26 07:48:35;;;;;;;4.70;2.70;;;;;;;22.92;50.75;100858.34;5069846;28;20028;-75
2023/08/26 07:51:00;;;;;;;7.97;2.67;;;;;;;23.58;49.64;100859.13;5069135;28;20017;-75
2023/08/26 07:53:26;;;;;;;6.80;2.50;;;;;;;23.13;50.34;100864.56;5067937;28;20391;-75
2023/08/26 07:55:51;;;;;;;7.22;2.80;;;;;;;21.67;53.96;100870.50;5068785;28;20035;-75
2023/08/26 07:58:16;;;;;;;5.18;2.95;;;;;;;22.89;50.44;100869.88;5068368;28;20032;-75
2023/08/26 08:00:42;;;;;;;4.43;2.40;;;;;;;23.39;49.95;100873.50;5066974;28;20028;-75
2023/08/26 08:03:07;;;;;;;4.88;2.58;;;;;;;24.10;48.57;100878.00;5068590;28;20020;-76
2023/08/26 08:05:33;;;;;;;6.57;2.97;;;;;;;22.68;50.86;100878.16;5069487;28;20329;-75
2023/08/26 08:07:58;;;;;;;4.93;2.40;;;;;;;23.87;48.51;100874.84;5069428;28;20028;-75
2023/08/26 08:10:23;;;;;;;6.38;3.28;;;;;;;24.16;47.10;100876.88;5068657;28;20519;-75
2023/08/26 08:12:49;;;;;;;6.63;2.65;;;;;;;22.49;52.36;100873.25;5068240;28;20480;-75
2023/08/26 08:15:17;;;;;;;6.18;2.30;;;;;;;23.76;47.72;100869.44;5068725;28;20124;-75
2023/08/26 08:17:43;;;;;;;5.40;2.30;;;;;;;24.95;46.02;100860.09;5066630;28;20020;-75
2023/08/26 08:20:08;;;;;;;6.72;2.47;;;;;;;24.46;46.14;100872.19;5067471;28;20354;-75
2023/08/26 08:22:36;;;;;;;7.20;2.55;;;;;;;23.66;48.95;100868.69;5067305;28;20397;-75
2023/08/26 08:25:02;;;;;;;5.70;2.60;;;;;;;23.87;48.37;100869.34;5068679;28;20138;-75
2023/08/26 08:27:28;;;;;;;4.50;2.53;;;;;;;23.25;48.78;100870.56;5060546;28;20021;-74
2023/08/26 08:29:53;;;;;;;5.40;2.88;;;;;;;24.46;46.11;100859.22;5068271;28;20081;-74
2023/08/26 08:32:21;;;;;;;4.78;2.70;;;;;;;24.56;45.86;100869.31;5067097;28;20021;-76
2023/08/26 08:34:47;;;;;;;6.50;3.03;;;;;;;25.38;44.21;100877.75;5061097;28;20467;-76
2023/08/26 08:37:13;;;;;;;6.72;2.60;;;;;;;24.40;45.82;100876.09;5065034;28;20225;-75
2023/08/26 08:39:38;;;;;;;3.88;2.50;;;;;;;24.41;45.22;100869.47;5064723;28;20082;-75
2023/08/26 08:42:03;;;;;;;6.38;2.33;;;;;;;24.84;45.02;100877.88;5067647;28;20499;-76
2023/08/26 08:44:30;;;;;;;6.38;2.30;;;;;;;24.88;45.83;100876.16;5067147;28;20111;-75
2023/08/26 08:46:55;;;;;;;6.32;2.38;;;;;;;25.43;43.26;100883.19;5057277;28;20017;-75
2023/08/26 08:49:21;;;;;;;5.63;2.53;;;;;;;23.64;46.76;100882.72;5069431;28;20035;-75
2023/08/26 08:51:47;;;;;;;6.63;2.30;;;;;;;22.99;49.29;100886.28;5062103;28;20020;-75
2023/08/26 08:54:12;;;;;;;4.55;2.30;;;;;;;23.70;46.71;100884.31;5064927;28;20052;-75
2023/08/26 08:56:38;;;;;;;4.03;2.28;;;;;;;24.09;46.81;100881.88;5060739;28;20036;-75
2023/08/26 08:59:03;;;;;;;5.55;2.28;;;;;;;24.55;45.34;100883.38;5049468;28;20503;-75
2023/08/26 09:01:30;;;;;;;5.72;2.30;;;;;;;24.89;45.62;100879.72;5040734;28;20094;-75
2023/08/26 09:03:55;;;;;;;6.05;2.10;;;;;;;25.35;44.47;100884.66;5069438;28;20031;-74
2023/08/26 09:06:21;;;;;;;3.83;2.08;;;;;;;25.78;44.07;100891.25;5066156;28;20041;-75
2023/08/26 09:08:46;;;;;;;4.85;1.98;;;;;;;26.27;41.45;100902.91;5063085;28;20028;-74
2023/08/26 09:11:12;;;;;;;5.18;2.00;;;;;;;24.64;45.42;100898.13;5079171;28;20027;-75
2023/08/26 09:13:38;;;;;;;4.68;2.05;;;;;;;25.48;43.28;100894.16;5068379;28;20148;-75
2023/08/26 09:16:04;;;;;;;3.58;1.98;;;;;;;26.19;41.74;100896.13;5064689;28;20031;-75
2023/08/26 09:18:29;;;;;;;5.68;1.70;;;;;;;26.17;40.87;100879.88;5069342;28;20098;-74
2023/08/26 09:20:55;;;;;;;3.38;1.83;;;;;;;25.54;42.67;100895.72;5068043;28;20020;-74
2023/08/26 09:23:20;;;;;;;4.40;1.90;;;;;;;26.44;40.66;100886.59;5067458;28;20086;-74
2023/08/26 09:25:56;;;;;;;5.75;2.08;;;;;;;26.34;40.21;100897.78;5073126;28;20314;-73
2023/08/26 09:28:23;;;;;;;;;;;;;;;26.38;39.93;100900.78;5061714;28;20333;-75
2023/08/26 09:31:05;;;;;;;5.78;1.70;;;;;;;25.66;43.03;100895.28;5069630;28;19947;-74
2023/08/26 09:33:30;;;;;;;4.72;1.70;;;;;;;25.32;42.99;100895.44;5073039;28;20068;-74
2023/08/26 09:35:56;;;;;;;3.78;1.83;;;;;;;24.05;45.75;100887.94;5070987;28;20049;-74
2023/08/26 09:38:21;;;;;;;6.15;2.00;;;;;;;22.63;50.89;100884.50;5070805;28;20251;-75
2023/08/26 09:40:47;;;;;;;7.40;2.25;;;;;;;23.81;47.00;100887.00;5067934;28;20071;-75
2023/08/26 09:43:12;;;;;;;3.45;1.90;;;;;;;23.69;48.03;100887.34;5067053;28;20043;-75
2023/08/26 09:45:38;;;;;;;3.17;1.80;;;;;;;24.36;46.10;100887.66;5057406;28;20036;-76
2023/08/26 09:48:05;;;;;;;3.75;1.70;;;;;;;24.42;45.50;100891.22;5067371;28;20524;-74
2023/08/26 09:50:31;;;;;;;3.85;1.80;;;;;;;24.88;44.19;100889.94;5061887;28;20029;-75
2023/08/26 09:52:56;;;;;;;4.40;1.70;;;;;;;24.97;44.23;100895.63;5069678;28;20106;-75
2023/08/26 09:55:22;;;;;;;3.80;1.30;;;;;;;24.88;45.31;100892.69;5070737;28;20024;-75
2023/08/26 09:57:47;;;;;;;2.97;1.48;;;;;;;24.97;44.13;100890.09;5065374;28;20028;-75
2023/08/26 10:00:16;;;;;;;4.80;1.30;;;;;;;25.30;43.37;100901.25;5070201;28;20028;-75
2023/08/26 10:02:49;;;;;;;4.50;1.70;;;;;;;23.56;47.24;100891.56;5068305;28;20100;-75
2023/08/26 10:05:18;;;;;;;4.25;1.60;;;;;;;23.42;47.53;100891.34;5063562;28;20028;-75
2023/08/26 10:07:50;;;;;;;3.92;1.65;;;;;;;23.53;48.71;100884.72;5084195;22;20048;-75
2023/08/26 10:10:29;;;;;;;2.28;1.42;;;;;;;24.38;46.74;100879.94;5063347;28;20469;-74
2023/08/26 10:12:56;;;;;;;2.92;1.25;;;;;;;24.81;43.99;100887.50;5053039;28;20550;-75
2023/08/26 10:15:21;;;;;;;2.83;1.45;;;;;;;25.24;43.50;100892.22;5037410;28;20330;-75
2023/08/26 10:17:49;;;;;;;3.47;1.60;;;;;;;25.65;43.41;100895.56;5061232;28;20032;-75
2023/08/26 10:20:14;;;;;;;5.70;1.63;;;;;;;25.45;43.49;100886.47;5055044;28;20112;-75
2023/08/26 10:22:40;;;;;;;4.72;1.50;;;;;;;25.20;44.09;100899.47;5063253;28;20040;-75
2023/08/26 10:25:06;;;;;;;3.22;1.40;;;;;;;25.85;42.53;100898.03;5094817;28;20027;-75
2023/08/26 10:27:34;;;;;;;1.75;1.10;;;;;;;26.73;40.64;100888.25;5037049;28;20158;-75
2023/08/26 10:30:00;;;;;;;2.72;1.20;;;;;;;26.42;40.65;100897.13;5071466;28;20044;-75
2023/08/26 10:32:27;;;;;;;3.20;1.38;;;;;;;25.98;40.81;100885.41;5069263;28;20048;-75
2023/08/26 10:34:53;;;;;;;2.85;1.58;;;;;;;25.67;41.89;100885.91;5070503;28;20021;-75
2023/08/26 10:37:19;;;;;;;3.85;1.58;;;;;;;25.56;43.28;100885.22;5073846;28;20036;-75
2023/08/26 10:39:45;;;;;;;4.57;1.40;;;;;;;26.36;41.96;100889.22;5070561;28;20036;-75
2023/08/26 10:42:17;;;;;;;3.20;1.48;;;;;;;25.33;43.04;100886.88;5053117;28;20607;-74
2023/08/26 10:44:47;;;;;;;3.28;1.50;;;;;;;25.38;43.69;100886.00;5068775;28;20551;-75
2023/08/26 10:47:34;;;;;;;3.25;1.30;;;;;;;25.86;41.91;100882.28;5076764;28;20028;-74
2023/08/26 10:50:19;;;;;;;2.75;1.20;;;;;;;25.53;43.53;100880.31;5077343;28;20036;-75
2023/08/26 10:52:48;;;;;;;1.88;1.27;;;;;;;25.50;42.68;100880.91;5070848;28;20814;-74
2023/08/26 10:55:25;;;;;;;3.45;1.30;;;;;;;25.77;42.00;100862.84;5074990;28;20031;-74
2023/08/26 10:58:07;;;;;;;3.47;1.30;;;;;;;25.67;42.50;100874.88;5075076;28;20100;-74
2023/08/26 11:00:36;;;;;;;3.55;1.50;;;;;;;26.01;42.48;100872.94;5064212;28;20028;-75
2023/08/26 11:03:03;;;;;;;1.80;1.13;;;;;;;26.52;40.20;100875.94;5064309;28;20027;-75
2023/08/26 11:05:31;;;;;;;4.07;1.30;;;;;;;26.43;40.55;100867.56;5063262;28;20457;-75
2023/08/26 11:07:56;;;;;;;2.00;1.20;;;;;;;26.45;41.83;100866.16;5082844;28;20409;-74
2023/08/26 11:10:29;;;;;;;3.35;1.45;;;;;;;26.70;40.24;100869.53;5088548;28;20476;-75
2023/08/26 11:12:54;;;;;;;2.08;1.23;;;;;;;25.96;40.98;100865.59;5078819;28;20028;-75
2023/08/26 11:15:20;;;;;;;3.10;1.40;;;;;;;25.13;42.67;100872.28;5060793;28;20032;-73